createdAt,value
2018-05-06T00:02:00.421Z,14.30
2018-05-06T00:04:28.866Z,14.23
2018-05-06T00:07:01.355Z,14.19
2018-05-06T00:09:29.800Z,14.13
2018-05-06T00:11:59.965Z,14.11
2018-05-06T00:14:29.079Z,14.07
2018-05-06T00:16:58.611Z,14.00
2018-05-06T00:19:26.961Z,13.96
2018-05-06T00:21:56.216Z,13.94
2018-05-06T00:24:24.651Z,13.95
2018-05-06T00:26:53.104Z,13.95
2018-05-06T00:29:21.453Z,13.94
2018-05-06T00:31:50.221Z,13.89
2018-05-06T00:34:18.591Z,13.89
2018-05-06T00:36:47.026Z,13.89
2018-05-06T00:39:16.792Z,13.88
2018-05-06T00:41:45.273Z,13.90
2018-05-06T00:44:14.414Z,13.88
2018-05-06T00:46:42.978Z,13.87
2018-05-06T00:49:12.408Z,13.83
2018-05-06T00:51:41.448Z,13.82
2018-05-06T00:54:27.903Z,13.75
2018-05-06T00:56:56.249Z,13.74
2018-05-06T00:59:25.824Z,13.70
2018-05-06T01:01:54.218Z,13.66
2018-05-06T01:04:22.589Z,13.61
2018-05-06T01:06:53.131Z,13.62
2018-05-06T01:09:22.791Z,13.57
2018-05-06T01:11:51.125Z,13.53
2018-05-06T01:14:20.736Z,13.53
2018-05-06T01:16:49.140Z,13.51
2018-05-06T01:19:19.039Z,13.47
2018-05-06T01:21:47.441Z,13.42
2018-05-06T01:24:15.891Z,13.35
2018-05-06T01:26:44.410Z,13.35
2018-05-06T01:29:13.598Z,13.31
2018-05-06T01:31:41.965Z,13.25
2018-05-06T01:34:10.339Z,13.20
2018-05-06T01:36:38.731Z,13.16
2018-05-06T01:39:07.110Z,13.13
2018-05-06T01:41:35.467Z,13.08
2018-05-06T01:44:03.857Z,13.05
2018-05-06T01:46:32.176Z,12.98
2018-05-06T01:49:01.332Z,12.97
2018-05-06T01:51:29.660Z,12.95
2018-05-06T01:53:58.783Z,12.94
2018-05-06T01:56:27.115Z,12.93
2018-05-06T01:58:56.079Z,12.87
2018-05-06T02:01:24.442Z,12.88
2018-05-06T02:03:52.827Z,12.87
2018-05-06T02:06:21.234Z,12.82
2018-05-06T02:08:50.030Z,12.81
2018-05-06T02:11:18.430Z,12.79
2018-05-06T02:13:47.522Z,12.76
2018-05-06T02:16:16.655Z,12.79
2018-05-06T02:18:45.013Z,12.74
2018-05-06T02:21:13.390Z,12.69
2018-05-06T02:23:41.754Z,12.65
2018-05-06T02:26:10.965Z,12.61
2018-05-06T02:28:40.370Z,12.52
2018-05-06T02:31:08.741Z,12.45
2018-05-06T02:33:37.136Z,12.48
2018-05-06T02:36:05.507Z,12.47
2018-05-06T02:38:33.847Z,12.46
2018-05-06T02:41:02.287Z,12.42
2018-05-06T02:43:30.649Z,12.36
2018-05-06T02:45:59.070Z,12.33
2018-05-06T02:48:27.435Z,12.27
2018-05-06T02:50:55.817Z,12.27
2018-05-06T02:53:24.190Z,12.30
2018-05-06T02:55:52.525Z,12.34
2018-05-06T02:58:20.909Z,12.36
2018-05-06T03:00:50.311Z,12.38
2018-05-06T03:03:19.431Z,12.32
2018-05-06T03:05:47.772Z,12.25
2018-05-06T03:08:16.938Z,12.23
2018-05-06T03:10:45.353Z,12.21
2018-05-06T03:13:14.467Z,12.20
2018-05-06T03:15:42.797Z,12.18
2018-05-06T03:18:11.207Z,12.13
2018-05-06T03:20:40.309Z,12.19
2018-05-06T03:23:09.214Z,12.12
2018-05-06T03:25:37.559Z,12.00
2018-05-06T03:28:06.810Z,12.01
2018-05-06T03:30:35.182Z,12.03
2018-05-06T03:33:03.565Z,12.05
2018-05-06T03:35:31.960Z,12.02
2018-05-06T03:38:00.415Z,12.01
2018-05-06T03:40:29.164Z,12.01
2018-05-06T03:42:57.532Z,12.02
2018-05-06T03:45:25.979Z,12.04
2018-05-06T03:47:54.340Z,12.05
2018-05-06T03:50:22.690Z,12.05
2018-05-06T03:52:52.617Z,11.99
2018-05-06T03:55:21.838Z,11.99
2018-05-06T03:58:07.865Z,11.95
2018-05-06T04:00:41.970Z,11.99
2018-05-06T04:03:10.371Z,11.95
2018-05-06T04:05:38.724Z,11.94
2018-05-06T04:08:07.064Z,11.96
2018-05-06T04:10:36.261Z,11.94
2018-05-06T04:13:04.606Z,11.95
2018-05-06T04:15:32.976Z,11.96
2018-05-06T04:18:01.327Z,11.97
2018-05-06T04:20:29.663Z,11.98
2018-05-06T04:22:58.806Z,12.01
2018-05-06T04:25:27.269Z,11.96
2018-05-06T04:27:55.672Z,11.96
2018-05-06T04:30:24.076Z,11.96
2018-05-06T04:32:52.653Z,11.89
2018-05-06T04:35:21.091Z,11.95
2018-05-06T04:37:49.457Z,11.97
2018-05-06T04:40:17.873Z,11.99
2018-05-06T04:42:46.232Z,12.03
2018-05-06T04:45:14.603Z,12.01
2018-05-06T04:47:42.988Z,12.02
2018-05-06T04:50:11.403Z,12.08
2018-05-06T04:52:39.783Z,12.13
2018-05-06T04:55:08.182Z,12.13
2018-05-06T04:57:37.292Z,12.18
2018-05-06T05:00:05.670Z,12.23
2018-05-06T05:02:34.796Z,12.27
2018-05-06T05:05:03.135Z,12.28
2018-05-06T05:07:32.288Z,12.32
2018-05-06T05:10:00.625Z,12.32
2018-05-06T05:12:28.972Z,12.31
2018-05-06T05:14:57.321Z,12.34
2018-05-06T05:17:25.702Z,12.40
2018-05-06T05:19:54.080Z,12.41
2018-05-06T05:22:22.452Z,12.47
2018-05-06T05:24:51.227Z,12.56
2018-05-06T05:27:19.632Z,12.58
2018-05-06T05:29:48.032Z,12.66
2018-05-06T05:32:16.405Z,12.72
2018-05-06T05:34:44.785Z,12.80
2018-05-06T05:37:13.140Z,12.80
2018-05-06T05:39:41.480Z,12.87
2018-05-06T05:42:11.110Z,12.96
2018-05-06T05:44:39.665Z,13.04
2018-05-06T05:47:08.765Z,13.18
2018-05-06T05:49:37.133Z,13.23
2018-05-06T05:52:07.178Z,13.24
2018-05-06T05:54:35.533Z,13.31
2018-05-06T05:57:03.979Z,13.42
2018-05-06T05:59:32.357Z,13.43
2018-05-06T06:02:00.729Z,13.52
2018-05-06T06:04:29.114Z,13.63
2018-05-06T06:06:57.457Z,13.71
2018-05-06T06:09:25.841Z,13.71
2018-05-06T06:11:54.182Z,13.73
2018-05-06T06:14:23.341Z,13.74
2018-05-06T06:16:52.733Z,13.82
2018-05-06T06:19:21.141Z,13.88
2018-05-06T06:21:49.500Z,13.97
2018-05-06T06:24:17.845Z,14.11
2018-05-06T06:26:46.245Z,14.24
2018-05-06T06:29:14.599Z,14.30
2018-05-06T06:31:43.039Z,14.36
2018-05-06T06:34:12.486Z,14.41
2018-05-06T06:36:41.024Z,14.54
2018-05-06T06:39:09.399Z,14.62
2018-05-06T06:41:38.540Z,14.69
2018-05-06T06:44:06.861Z,14.75
2018-05-06T06:46:35.250Z,14.85
2018-05-06T06:49:03.624Z,15.04
2018-05-06T06:51:32.025Z,15.13
2018-05-06T06:54:00.403Z,15.19
2018-05-06T06:56:29.530Z,15.30
2018-05-06T06:58:57.930Z,15.37
2018-05-06T07:01:26.287Z,15.46
2018-05-06T07:03:54.637Z,15.60
2018-05-06T07:06:23.814Z,15.59
2018-05-06T07:08:53.734Z,15.60
2018-05-06T07:11:22.974Z,15.66
2018-05-06T07:13:52.104Z,15.74
2018-05-06T07:16:20.476Z,15.81
2018-05-06T07:18:48.845Z,15.89
2018-05-06T07:21:17.178Z,15.96
2018-05-06T07:23:46.291Z,16.12
2018-05-06T07:26:15.961Z,16.22
2018-05-06T07:28:44.312Z,16.28
2018-05-06T07:31:12.660Z,16.30
2018-05-06T07:33:41.024Z,16.44
2018-05-06T07:36:10.172Z,16.74
2018-05-06T07:38:38.529Z,16.83
2018-05-06T07:41:06.924Z,16.84
2018-05-06T07:43:35.301Z,16.81
2018-05-06T07:46:04.488Z,16.88
2018-05-06T07:48:32.846Z,16.99
2018-05-06T07:51:01.992Z,17.05
2018-05-06T07:53:30.344Z,17.16
2018-05-06T07:55:58.743Z,17.30
2018-05-06T07:58:27.061Z,17.38
2018-05-06T08:00:56.243Z,17.58
2018-05-06T08:03:26.424Z,17.70
2018-05-06T08:05:54.797Z,17.81
2018-05-06T08:08:23.334Z,17.84
2018-05-06T08:10:52.819Z,17.99
2018-05-06T08:13:21.152Z,18.11
2018-05-06T08:15:49.603Z,18.22
2018-05-06T08:18:17.976Z,18.30
2018-05-06T08:20:46.362Z,18.32
2018-05-06T08:23:15.541Z,18.40
2018-05-06T08:25:43.972Z,18.47
2018-05-06T08:28:12.495Z,18.51
2018-05-06T08:30:40.868Z,18.52
2018-05-06T08:33:09.224Z,18.54
2018-05-06T08:35:37.609Z,18.61
2018-05-06T08:38:05.967Z,18.64
2018-05-06T08:40:34.326Z,18.74
2018-05-06T08:43:02.698Z,18.74
2018-05-06T08:45:31.814Z,18.79
2018-05-06T08:48:00.232Z,18.87
2018-05-06T08:50:28.669Z,19.00
2018-05-06T08:52:57.076Z,19.07
2018-05-06T08:55:25.616Z,19.07
2018-05-06T08:57:54.086Z,19.08
2018-05-06T09:00:22.685Z,19.11
2018-05-06T09:02:51.052Z,19.16
2018-05-06T09:05:20.202Z,19.24
2018-05-06T09:07:48.587Z,19.27
2018-05-06T09:10:16.995Z,19.29
2018-05-06T09:12:46.272Z,19.36
2018-05-06T09:15:14.652Z,19.42
2018-05-06T09:17:42.987Z,19.46
2018-05-06T09:20:12.140Z,19.51
2018-05-06T09:22:40.496Z,19.56
2018-05-06T09:25:08.935Z,19.64
2018-05-06T09:27:37.311Z,19.72
2018-05-06T09:30:06.418Z,19.80
2018-05-06T09:32:35.625Z,19.84
2018-05-06T09:35:03.990Z,19.93
2018-05-06T09:37:32.491Z,19.96
2018-05-06T09:40:00.831Z,20.01
2018-05-06T09:42:30.033Z,20.09
2018-05-06T09:44:58.406Z,20.15
2018-05-06T09:47:27.541Z,20.23
2018-05-06T09:49:55.930Z,20.28
2018-05-06T09:52:24.296Z,20.36
2018-05-06T09:54:52.629Z,20.42
2018-05-06T09:57:21.070Z,20.50
2018-05-06T09:59:49.443Z,20.58
2018-05-06T10:02:17.823Z,20.61
2018-05-06T10:04:46.279Z,20.69
2018-05-06T10:07:14.633Z,20.75
2018-05-06T10:09:43.765Z,20.84
2018-05-06T10:12:12.142Z,20.91
2018-05-06T10:14:40.560Z,20.96
2018-05-06T10:17:09.051Z,21.01
2018-05-06T10:19:37.436Z,21.06
2018-05-06T10:22:06.578Z,21.12
2018-05-06T10:24:35.006Z,21.19
2018-05-06T10:27:03.387Z,21.25
2018-05-06T10:29:31.716Z,21.32
2018-05-06T10:32:00.073Z,21.31
2018-05-06T10:34:28.426Z,21.37
2018-05-06T10:36:57.859Z,21.40
2018-05-06T10:39:26.297Z,21.57
2018-05-06T10:41:54.691Z,21.60
2018-05-06T10:44:23.849Z,21.65
2018-05-06T10:46:52.200Z,21.69
2018-05-06T10:49:20.605Z,21.80
2018-05-06T10:51:49.074Z,21.82
2018-05-06T10:54:18.545Z,21.82
2018-05-06T10:56:47.732Z,21.82
2018-05-06T10:59:16.859Z,21.83
2018-05-06T11:01:45.225Z,21.82
2018-05-06T11:04:14.355Z,21.80
2018-05-06T11:06:42.721Z,21.92
2018-05-06T11:09:11.076Z,22.04
2018-05-06T11:11:40.186Z,22.05
2018-05-06T11:14:08.554Z,22.09
2018-05-06T11:16:37.769Z,22.19
2018-05-06T11:19:06.130Z,22.26
2018-05-06T11:21:35.574Z,22.38
2018-05-06T11:24:03.996Z,22.45
2018-05-06T11:26:33.196Z,22.47
2018-05-06T11:29:02.326Z,22.54
2018-05-06T11:31:30.730Z,22.56
2018-05-06T11:33:59.141Z,22.62
2018-05-06T11:36:27.542Z,22.68
2018-05-06T11:38:56.857Z,22.79
2018-05-06T11:41:25.280Z,22.89
2018-05-06T11:43:53.617Z,22.97
2018-05-06T11:46:21.964Z,23.04
2018-05-06T11:48:51.085Z,23.13
2018-05-06T11:51:20.047Z,23.32
2018-05-06T11:53:49.190Z,23.45
2018-05-06T11:56:17.971Z,23.50
2018-05-06T11:58:46.264Z,23.48
2018-05-06T12:01:14.651Z,23.51
2018-05-06T12:03:43.008Z,23.55
2018-05-06T12:06:11.563Z,23.59
2018-05-06T12:08:40.019Z,23.66
2018-05-06T12:11:08.365Z,23.77
2018-05-06T12:13:37.749Z,23.90
2018-05-06T12:16:06.184Z,23.98
2018-05-06T12:18:35.239Z,23.98
2018-05-06T12:21:03.592Z,24.05
2018-05-06T12:23:31.970Z,24.15
2018-05-06T12:26:00.304Z,24.20
2018-05-06T12:28:28.653Z,24.27
2018-05-06T12:30:57.163Z,24.35
2018-05-06T12:33:25.550Z,24.34
2018-05-06T12:35:53.881Z,24.38
2018-05-06T12:38:22.232Z,24.37
2018-05-06T12:40:52.196Z,24.45
2018-05-06T12:43:21.075Z,24.48
2018-05-06T12:45:50.358Z,24.56
2018-05-06T12:48:19.610Z,24.59
2018-05-06T12:50:47.961Z,24.66
2018-05-06T12:53:16.415Z,24.75
2018-05-06T12:55:45.665Z,24.84
2018-05-06T12:58:14.005Z,24.92
2018-05-06T13:00:42.335Z,24.99
2018-05-06T13:03:11.572Z,24.97
2018-05-06T13:05:39.980Z,25.07
2018-05-06T13:08:08.325Z,25.09
2018-05-06T13:10:36.672Z,25.20
2018-05-06T13:13:05.754Z,25.26
2018-05-06T13:15:34.233Z,25.37
2018-05-06T13:18:02.584Z,25.42
2018-05-06T13:20:30.932Z,25.50
2018-05-06T13:22:59.297Z,25.52
2018-05-06T13:25:28.435Z,25.46
2018-05-06T13:27:56.834Z,25.48
2018-05-06T13:30:25.212Z,25.53
2018-05-06T13:32:54.079Z,25.55
2018-05-06T13:35:23.446Z,25.60
2018-05-06T13:37:53.745Z,25.71
2018-05-06T13:40:22.109Z,25.81
2018-05-06T13:42:50.511Z,25.82
2018-05-06T13:45:19.636Z,25.92
2018-05-06T13:47:48.643Z,25.97
2018-05-06T13:50:17.216Z,26.07
2018-05-06T13:52:45.592Z,26.09
2018-05-06T13:55:13.948Z,26.08
2018-05-06T13:57:43.932Z,26.18
2018-05-06T14:00:12.955Z,26.15
2018-05-06T14:02:42.977Z,26.18
2018-05-06T14:05:13.294Z,26.22
2018-05-06T14:07:43.176Z,26.27
2018-05-06T14:10:12.297Z,26.37
2018-05-06T14:12:41.539Z,26.42
2018-05-06T14:15:10.001Z,26.52
2018-05-06T14:17:40.042Z,26.49
2018-05-06T14:20:09.206Z,26.51
2018-05-06T14:22:39.257Z,26.47
2018-05-06T14:25:08.651Z,26.48
2018-05-06T14:27:37.449Z,26.46
2018-05-06T14:30:05.882Z,26.46
2018-05-06T14:32:34.890Z,26.57
2018-05-06T14:35:04.850Z,26.57
2018-05-06T14:37:33.176Z,26.66
2018-05-06T14:40:02.281Z,26.64
2018-05-06T14:42:31.394Z,26.71
2018-05-06T14:45:01.530Z,26.76
2018-05-06T14:47:47.732Z,26.75
2018-05-06T14:50:16.869Z,26.72
2018-05-06T14:52:45.244Z,26.75
2018-05-06T14:55:13.597Z,26.72
2018-05-06T14:57:42.752Z,26.67
2018-05-06T15:00:13.582Z,26.70
2018-05-06T15:02:41.997Z,26.61
2018-05-06T15:05:10.370Z,26.65
2018-05-06T15:07:39.119Z,26.73
2018-05-06T15:10:08.257Z,26.75
2018-05-06T15:12:38.110Z,26.72
2018-05-06T15:15:06.559Z,26.72
2018-05-06T15:17:34.900Z,26.74
2018-05-06T15:20:03.346Z,26.76
2018-05-06T15:22:31.721Z,26.83
2018-05-06T15:25:00.100Z,26.91
2018-05-06T15:27:29.172Z,27.02
2018-05-06T15:29:58.252Z,27.14
2018-05-06T15:32:27.479Z,27.16
2018-05-06T15:34:59.121Z,27.46
2018-05-06T15:37:28.276Z,27.75
2018-05-06T15:39:59.738Z,28.01
2018-05-06T15:42:28.094Z,28.45
2018-05-06T15:44:58.295Z,28.65
2018-05-06T15:47:28.304Z,28.76
2018-05-06T15:49:56.742Z,28.65
2018-05-06T15:52:25.174Z,28.40
2018-05-06T15:54:53.624Z,28.44
2018-05-06T15:57:22.524Z,28.38
2018-05-06T15:59:50.917Z,28.24
2018-05-06T16:02:57.234Z,28.23
2018-05-06T16:05:25.631Z,28.10
2018-05-06T16:07:54.800Z,27.90
2018-05-06T16:10:23.925Z,27.61
2018-05-06T16:12:52.301Z,27.32
2018-05-06T16:15:22.221Z,27.12
2018-05-06T16:17:51.358Z,26.83
2018-05-06T16:20:20.630Z,26.67
2018-05-06T16:22:49.058Z,26.40
2018-05-06T16:25:17.916Z,26.21
2018-05-06T16:27:46.312Z,26.11
2018-05-06T16:30:14.692Z,25.93
2018-05-06T16:32:43.219Z,25.85
2018-05-06T16:35:11.561Z,25.72
2018-05-06T16:37:40.662Z,25.62
2018-05-06T16:40:09.881Z,25.51
2018-05-06T16:42:38.253Z,25.45
2018-05-06T16:45:06.671Z,25.35
2018-05-06T16:47:35.606Z,25.25
2018-05-06T16:50:04.772Z,25.15
2018-05-06T16:52:33.162Z,25.07
2018-05-06T16:55:01.501Z,25.02
2018-05-06T16:57:29.851Z,25.00
2018-05-06T16:59:58.995Z,25.02
2018-05-06T17:02:27.358Z,25.01
2018-05-06T17:04:55.763Z,25.02
2018-05-06T17:07:24.088Z,25.00
2018-05-06T17:09:52.443Z,24.90
2018-05-06T17:12:22.282Z,24.84
2018-05-06T17:14:51.731Z,24.71
2018-05-06T17:17:20.107Z,24.60
2018-05-06T17:19:48.470Z,24.49
2018-05-06T17:22:16.952Z,24.39
2018-05-06T17:24:45.309Z,24.28
2018-05-06T17:27:14.373Z,24.16
2018-05-06T17:29:43.508Z,24.05
2018-05-06T17:32:12.080Z,23.89
2018-05-06T17:34:40.412Z,23.82
2018-05-06T17:37:09.703Z,23.72
2018-05-06T17:39:38.359Z,23.65
2018-05-06T17:42:06.696Z,23.58
2018-05-06T17:44:35.839Z,23.50
2018-05-06T17:47:04.211Z,23.39
2018-05-06T17:49:32.664Z,23.30
2018-05-06T17:52:01.758Z,23.22
2018-05-06T17:54:30.954Z,23.17
2018-05-06T17:57:00.398Z,23.14
2018-05-06T17:59:28.871Z,23.07
2018-05-06T18:01:57.217Z,23.01
2018-05-06T18:04:26.356Z,22.93
2018-05-06T18:06:54.743Z,22.89
2018-05-06T18:09:23.252Z,22.80
2018-05-06T18:11:51.638Z,22.76
2018-05-06T18:14:20.017Z,22.71
2018-05-06T18:16:48.371Z,22.67
2018-05-06T18:19:16.729Z,22.65
2018-05-06T18:21:45.132Z,22.60
2018-05-06T18:24:13.501Z,22.55
2018-05-06T18:26:41.865Z,22.51
2018-05-06T18:29:11.172Z,22.44
2018-05-06T18:31:39.640Z,22.39
2018-05-06T18:34:07.992Z,22.32
2018-05-06T18:36:36.377Z,22.24
2018-05-06T18:39:04.729Z,22.23
2018-05-06T18:41:33.885Z,22.17
2018-05-06T18:44:02.232Z,22.13
2018-05-06T18:46:30.636Z,22.09
2018-05-06T18:48:59.246Z,22.00
2018-05-06T18:51:27.594Z,21.94
2018-05-06T18:53:56.876Z,21.91
2018-05-06T18:56:26.325Z,21.84
2018-05-06T18:58:54.708Z,21.79
2018-05-06T19:01:23.054Z,21.71
2018-05-06T19:03:52.422Z,21.67
2018-05-06T19:06:21.844Z,21.59
2018-05-06T19:08:51.097Z,21.52
2018-05-06T19:11:19.491Z,21.30
2018-05-06T19:13:48.749Z,21.24
2018-05-06T19:16:18.032Z,21.17
2018-05-06T19:18:46.398Z,21.11
2018-05-06T19:21:17.204Z,21.05
2018-05-06T19:23:47.870Z,21.00
2018-05-06T19:26:18.514Z,20.92
2018-05-06T19:28:47.223Z,20.88
2018-05-06T19:31:15.699Z,20.82
2018-05-06T19:33:44.538Z,20.76
2018-05-06T19:36:14.983Z,20.76
2018-05-06T19:38:43.349Z,20.75
2018-05-06T19:41:13.261Z,20.71
2018-05-06T19:43:42.505Z,20.64
2018-05-06T19:46:10.891Z,20.65
2018-05-06T19:48:39.920Z,20.66
2018-05-06T19:51:08.340Z,20.58
2018-05-06T19:53:36.724Z,20.54
2018-05-06T19:56:06.813Z,20.58
2018-05-06T19:58:36.022Z,20.52
2018-05-06T20:01:05.243Z,20.45
2018-05-06T20:03:33.783Z,20.44
2018-05-06T20:06:03.299Z,20.37
2018-05-06T20:08:31.769Z,20.34
2018-05-06T20:11:01.084Z,20.27
2018-05-06T20:13:29.700Z,20.20
2018-05-06T20:15:58.164Z,20.14
2018-05-06T20:18:27.995Z,20.07
2018-05-06T20:20:56.702Z,20.03
2018-05-06T20:23:25.782Z,19.95
2018-05-06T20:25:54.571Z,19.88
2018-05-06T20:28:23.289Z,19.85
2018-05-06T20:30:52.032Z,19.77
2018-05-06T20:33:21.389Z,19.73
2018-05-06T20:35:50.950Z,19.72
2018-05-06T20:38:19.397Z,19.66
2018-05-06T20:40:47.890Z,19.65
2018-05-06T20:43:16.345Z,19.59
2018-05-06T20:45:46.729Z,19.54
2018-05-06T20:48:15.106Z,19.49
2018-05-06T20:50:43.458Z,19.43
2018-05-06T20:53:12.998Z,19.37
2018-05-06T20:55:43.682Z,19.32
2018-05-06T20:58:12.041Z,19.28
2018-05-06T21:00:45.582Z,19.24
2018-05-06T21:03:14.892Z,19.18
2018-05-06T21:05:44.713Z,19.12
2018-05-06T21:08:13.105Z,19.12
2018-05-06T21:10:41.445Z,19.12
2018-05-06T21:13:09.812Z,19.07
2018-05-06T21:15:38.210Z,19.04
2018-05-06T21:18:06.688Z,19.02
2018-05-06T21:20:35.044Z,18.97
2018-05-06T21:23:03.432Z,18.87
2018-05-06T21:25:31.773Z,18.87
2018-05-06T21:28:00.983Z,18.82
2018-05-06T21:30:30.113Z,18.77
2018-05-06T21:33:01.587Z,18.74
2018-05-06T21:35:29.903Z,18.72
2018-05-06T21:37:58.338Z,18.66
2018-05-06T21:40:26.664Z,18.58
2018-05-06T21:42:56.604Z,18.54
2018-05-06T21:45:25.006Z,18.47
2018-05-06T21:47:53.324Z,18.45
2018-05-06T21:50:21.684Z,18.42
2018-05-06T21:52:50.059Z,18.35
2018-05-06T21:55:18.423Z,18.32
2018-05-06T21:57:46.764Z,18.26
2018-05-06T22:00:15.140Z,18.18
2018-05-06T22:02:43.503Z,18.13
2018-05-06T22:05:14.764Z,18.11
2018-05-06T22:07:43.892Z,18.07
2018-05-06T22:10:12.284Z,18.09
2018-05-06T22:12:40.736Z,18.02
2018-05-06T22:15:09.077Z,18.01
2018-05-06T22:17:37.428Z,17.98
2018-05-06T22:20:05.802Z,17.94
2018-05-06T22:22:34.232Z,17.89
2018-05-06T22:25:03.402Z,17.85
2018-05-06T22:27:31.752Z,17.86
2018-05-06T22:30:00.115Z,17.83
2018-05-06T22:32:28.469Z,17.77
2018-05-06T22:34:57.604Z,17.71
2018-05-06T22:37:25.953Z,17.68
2018-05-06T22:39:54.306Z,17.52
2018-05-06T22:42:23.455Z,17.42
2018-05-06T22:44:51.992Z,17.30
2018-05-06T22:47:21.138Z,17.21
2018-05-06T22:49:49.512Z,17.23
2018-05-06T22:52:17.904Z,17.27
2018-05-06T22:54:47.644Z,17.35
2018-05-06T22:57:17.924Z,17.29
2018-05-06T22:59:47.218Z,17.29
2018-05-06T23:02:15.546Z,17.25
2018-05-06T23:04:44.776Z,17.27
2018-05-06T23:07:13.105Z,17.23
2018-05-06T23:09:41.513Z,17.22
2018-05-06T23:12:10.658Z,17.15
2018-05-06T23:14:39.801Z,17.09
2018-05-06T23:17:08.927Z,17.07
2018-05-06T23:19:38.299Z,17.02
2018-05-06T23:22:07.465Z,16.98
2018-05-06T23:24:35.857Z,16.95
2018-05-06T23:27:05.137Z,16.87
2018-05-06T23:29:33.591Z,16.81
2018-05-06T23:32:01.960Z,16.78
2018-05-06T23:34:30.346Z,16.82
2018-05-06T23:36:58.710Z,16.80
2018-05-06T23:39:27.138Z,16.79
2018-05-06T23:41:56.278Z,16.78
2018-05-06T23:44:26.104Z,16.72
2018-05-06T23:46:56.055Z,16.68
2018-05-06T23:49:24.418Z,16.67
2018-05-06T23:51:52.773Z,16.68
2018-05-06T23:54:21.116Z,16.65
2018-05-06T23:56:49.472Z,16.58
2018-05-06T23:59:17.803Z,16.55
